Time,TemperatureF,DewpointF,PressureIn,WindDirection,WindDirectionDegrees,WindSpeedMPH,WindSpeedGustMPH,Humidity,HourlyPrecipIn,Conditions,Clouds,dailyrainin,SoftwareType,DateUTC
2013-07-06 00:01:00,72.1,70.0,30.17,SSW,199,6.0,6.0,93,0.00,,,0.00,Wunderground v.1.15,2013-07-06 04:01:00,
2013-07-06 00:02:00,72.2,70.1,30.17,SSW,202,6.0,6.0,93,0.00,,,0.00,Wunderground v.1.15,2013-07-06 04:02:00,
2013-07-06 00:03:00,72.2,70.1,30.17,SSW,209,6.0,8.0,93,0.00,,,0.00,Wunderground v.1.15,2013-07-06 04:03:00,
2013-07-06 00:08:00,72.5,70.4,30.17,SSW,198,6.0,8.0,93,0.00,,,0.00,Wunderground v.1.15,2013-07-06 04:08:00,
2013-07-06 00:09:00,72.5,70.4,30.17,South,185,6.0,8.0,93,0.00,,,0.00,Wunderground v.1.15,2013-07-06 04:09:00,
2013-07-06 00:11:00,72.5,70.4,30.17,SSW,206,6.0,7.0,93,0.00,,,0.00,Wunderground v.1.15,2013-07-06 04:11:00,
2013-07-06 00:16:00,72.5,70.0,30.17,South,190,5.0,9.0,92,0.00,,,0.00,Wunderground v.1.15,2013-07-06 04:16:00,
2013-07-06 00:22:00,72.5,70.0,30.17,SSW,196,4.0,5.0,92,0.00,,,0.00,Wunderground v.1.15,2013-07-06 04:22:00,
2013-07-06 00:28:00,72.4,69.9,30.17,SSW,193,5.0,8.0,92,0.00,,,0.00,Wunderground v.1.15,2013-07-06 04:28:00,
2013-07-06 00:34:00,72.4,69.9,30.17,South,174,6.0,7.0,92,0.00,,,0.00,Wunderground v.1.15,2013-07-06 04:34:00,
2013-07-06 00:40:00,72.5,70.0,30.17,SSW,192,6.0,6.0,92,0.00,,,0.00,Wunderground v.1.15,2013-07-06 04:40:00,
2013-07-06 00:45:00,72.4,69.9,30.17,SSW,196,6.0,6.0,92,0.00,,,0.00,Wunderground v.1.15,2013-07-06 04:45:00,
2013-07-06 00:51:00,72.3,69.8,30.17,South,190,6.0,7.0,92,0.00,,,0.00,Wunderground v.1.15,2013-07-06 04:51:00,
2013-07-06 00:57:00,72.3,70.2,30.17,South,190,5.0,7.0,93,0.00,,,0.00,Wunderground v.1.15,2013-07-06 04:57:00,
2013-07-06 01:03:00,72.2,70.1,30.16,SSE,166,4.0,5.0,93,0.00,,,0.00,Wunderground v.1.15,2013-07-06 05:03:00,
2013-07-06 01:09:00,72.0,69.5,30.16,SSE,165,4.0,5.0,92,0.00,,,0.00,Wunderground v.1.15,2013-07-06 05:09:00,
2013-07-06 01:14:00,71.7,69.3,30.16,South,173,4.0,7.0,92,0.00,,,0.00,Wunderground v.1.15,2013-07-06 05:14:00,
2013-07-06 01:20:00,71.6,69.5,30.16,SSE,159,5.0,6.0,93,0.00,,,0.00,Wunderground v.1.15,2013-07-06 05:20:00,
2013-07-06 01:26:00,71.5,69.4,30.16,SSW,198,5.0,7.0,93,0.00,,,0.00,Wunderground v.1.15,2013-07-06 05:26:00,
2013-07-06 01:32:00,71.4,69.3,30.16,SSW,205,5.0,7.0,93,0.00,,,0.00,Wunderground v.1.15,2013-07-06 05:32:00,
2013-07-06 01:38:00,71.3,69.2,30.16,South,185,6.0,7.0,93,0.00,,,0.00,Wunderground v.1.15,2013-07-06 05:38:00,
2013-07-06 01:43:00,71.2,69.1,30.15,South,175,6.0,7.0,93,0.00,,,0.00,Wunderground v.1.15,2013-07-06 05:43:00,
2013-07-06 01:48:00,71.2,69.4,30.15,South,170,5.0,7.0,94,0.00,,,0.00,Wunderground v.1.15,2013-07-06 05:48:00,
2013-07-06 01:54:00,71.2,69.4,30.16,South,183,5.0,6.0,94,0.00,,,0.00,Wunderground v.1.15,2013-07-06 05:54:00,
2013-07-06 02:00:00,71.0,69.2,30.15,South,189,3.0,3.0,94,0.00,,,0.00,Wunderground v.1.15,2013-07-06 06:00:00,
2013-07-06 02:06:00,70.6,68.5,30.16,South,170,1.0,5.0,93,0.00,,,0.00,Wunderground v.1.15,2013-07-06 06:06:00,
2013-07-06 02:12:00,70.5,68.7,30.15,SSW,193,2.0,5.0,94,0.00,,,0.00,Wunderground v.1.15,2013-07-06 06:12:00,
2013-07-06 02:18:00,70.5,68.7,30.15,South,174,3.0,5.0,94,0.00,,,0.00,Wunderground v.1.15,2013-07-06 06:18:00,
2013-07-06 02:23:00,70.5,68.7,30.15,South,185,4.0,6.0,94,0.00,,,0.00,Wunderground v.1.15,2013-07-06 06:23:00,
2013-07-06 02:29:00,70.6,68.8,30.15,South,186,4.0,6.0,94,0.00,,,0.00,Wunderground v.1.15,2013-07-06 06:29:00,
2013-07-06 02:35:00,70.6,68.8,30.15,SW,215,3.0,5.0,94,0.00,,,0.00,Wunderground v.1.15,2013-07-06 06:35:00,
2013-07-06 02:41:00,70.7,69.2,30.15,SSE,159,4.0,7.0,95,0.00,,,0.00,Wunderground v.1.15,2013-07-06 06:41:00,
2013-07-06 02:46:00,70.8,69.3,30.15,SSW,199,5.0,8.0,95,0.00,,,0.00,Wunderground v.1.15,2013-07-06 06:46:00,
2013-07-06 02:52:00,70.9,69.4,30.15,SSW,202,5.0,6.0,95,0.00,,,0.00,Wunderground v.1.15,2013-07-06 06:52:00,
2013-07-06 02:58:00,70.8,69.3,30.15,SSW,194,5.0,7.0,95,0.00,,,0.00,Wunderground v.1.15,2013-07-06 06:58:00,
2013-07-06 03:03:00,70.8,69.3,30.15,South,188,5.0,7.0,95,0.00,,,0.00,Wunderground v.1.15,2013-07-06 07:03:00,
2013-07-06 03:09:00,70.9,69.4,30.15,SSW,196,5.0,7.0,95,0.00,,,0.00,Wunderground v.1.15,2013-07-06 07:09:00,
2013-07-06 03:15:00,71.0,69.5,30.15,South,173,4.0,5.0,95,0.00,,,0.00,Wunderground v.1.15,2013-07-06 07:15:00,
2013-07-06 03:20:00,70.9,69.4,30.15,South,190,3.0,3.0,95,0.00,,,0.00,Wunderground v.1.15,2013-07-06 07:20:00,
2013-07-06 03:26:00,70.7,69.2,30.15,South,186,1.0,3.0,95,0.00,,,0.00,Wunderground v.1.15,2013-07-06 07:26:00,
2013-07-06 03:32:00,70.4,68.9,30.15,South,175,1.0,1.0,95,0.00,,,0.00,Wunderground v.1.15,2013-07-06 07:32:00,
2013-07-06 03:38:00,70.2,68.7,30.15,South,169,1.0,5.0,95,0.00,,,0.00,Wunderground v.1.15,2013-07-06 07:38:00,
2013-07-06 03:44:00,69.5,67.7,30.15,SSE,166,3.0,6.0,94,0.00,,,0.00,Wunderground v.1.15,2013-07-06 07:44:00,
2013-07-06 03:49:00,69.1,67.3,30.15,South,173,4.0,6.0,94,0.00,,,0.00,Wunderground v.1.15,2013-07-06 07:49:00,
2013-07-06 03:55:00,68.8,67.0,30.15,South,171,4.0,5.0,94,0.00,,,0.00,Wunderground v.1.15,2013-07-06 07:55:00,
2013-07-06 04:00:00,68.7,66.9,30.15,South,169,3.0,3.0,94,0.00,,,0.00,Wunderground v.1.15,2013-07-06 08:00:00,
2013-07-06 04:05:00,68.6,67.1,30.15,South,182,3.0,4.0,95,0.00,,,0.00,Wunderground v.1.15,2013-07-06 08:05:00,
2013-07-06 04:11:00,68.4,66.9,30.15,SSE,160,3.0,6.0,95,0.00,,,0.00,Wunderground v.1.15,2013-07-06 08:11:00,
2013-07-06 04:17:00,68.1,66.6,30.15,South,173,4.0,6.0,95,0.00,,,0.00,Wunderground v.1.15,2013-07-06 08:17:00,
2013-07-06 04:23:00,68.0,66.5,30.15,South,178,4.0,5.0,95,0.00,,,0.00,Wunderground v.1.15,2013-07-06 08:23:00,
2013-07-06 04:29:00,68.0,66.5,30.15,South,176,3.0,5.0,95,0.00,,,0.00,Wunderground v.1.15,2013-07-06 08:29:00,
2013-07-06 04:34:00,68.1,66.6,30.15,South,172,2.0,3.0,95,0.00,,,0.00,Wunderground v.1.15,2013-07-06 08:34:00,
2013-07-06 04:40:00,68.3,67.1,30.15,SSE,165,2.0,2.0,96,0.00,,,0.00,Wunderground v.1.15,2013-07-06 08:40:00,
2013-07-06 04:46:00,68.5,67.3,30.15,SSE,163,2.0,2.0,96,0.00,,,0.00,Wunderground v.1.15,2013-07-06 08:46:00,
2013-07-06 04:52:00,68.7,67.5,30.15,SSE,164,2.0,4.0,96,0.00,,,0.00,Wunderground v.1.15,2013-07-06 08:52:00,
2013-07-06 04:58:00,68.8,67.6,30.15,South,171,2.0,5.0,96,0.00,,,0.00,Wunderground v.1.15,2013-07-06 08:58:00,
2013-07-06 05:03:00,68.6,67.1,30.15,South,170,3.0,4.0,95,0.00,,,0.00,Wunderground v.1.15,2013-07-06 09:03:00,
2013-07-06 05:09:00,68.5,67.3,30.15,South,187,4.0,6.0,96,0.00,,,0.00,Wunderground v.1.15,2013-07-06 09:09:00,
2013-07-06 05:15:00,68.4,67.2,30.15,South,171,4.0,5.0,96,0.00,,,0.00,Wunderground v.1.15,2013-07-06 09:15:00,
2013-07-06 05:21:00,68.5,67.3,30.15,South,169,3.0,5.0,96,0.00,,,0.00,Wunderground v.1.15,2013-07-06 09:21:00,
2013-07-06 05:27:00,68.7,67.5,30.15,South,170,3.0,5.0,96,0.00,,,0.00,Wunderground v.1.15,2013-07-06 09:27:00,
2013-07-06 05:32:00,68.8,67.6,30.15,South,175,3.0,3.0,96,0.00,,,0.00,Wunderground v.1.15,2013-07-06 09:32:00,
2013-07-06 05:38:00,69.0,67.8,30.15,South,175,2.0,3.0,96,0.00,,,0.00,Wunderground v.1.15,2013-07-06 09:38:00,
2013-07-06 05:44:00,69.3,68.1,30.15,South,175,2.0,4.0,96,0.00,,,0.00,Wunderground v.1.15,2013-07-06 09:44:00,
2013-07-06 05:50:00,69.5,68.3,30.16,South,175,1.0,1.0,96,0.00,,,0.00,Wunderground v.1.15,2013-07-06 09:50:00,
2013-07-06 05:57:00,69.7,68.5,30.15,South,172,1.0,1.0,96,0.00,,,0.00,Wunderground v.1.15,2013-07-06 09:57:00,
2013-07-06 06:03:00,69.8,68.6,30.15,South,169,1.0,2.0,96,0.00,,,0.00,Wunderground v.1.15,2013-07-06 10:03:00,
2013-07-06 06:08:00,69.8,68.6,30.15,South,169,1.0,2.0,96,0.00,,,0.00,Wunderground v.1.15,2013-07-06 10:08:00,
2013-07-06 06:14:00,69.7,68.5,30.16,SSE,167,2.0,4.0,96,0.00,,,0.00,Wunderground v.1.15,2013-07-06 10:14:00,
2013-07-06 06:20:00,69.5,68.3,30.16,South,183,3.0,4.0,96,0.00,,,0.00,Wunderground v.1.15,2013-07-06 10:20:00,
2013-07-06 06:26:00,69.3,68.1,30.16,South,182,4.0,4.0,96,0.00,,,0.00,Wunderground v.1.15,2013-07-06 10:26:00,
2013-07-06 06:31:00,69.2,68.0,30.16,South,171,3.0,3.0,96,0.00,,,0.00,Wunderground v.1.15,2013-07-06 10:31:00,
2013-07-06 06:37:00,69.3,68.1,30.16,South,189,3.0,7.0,96,0.00,,,0.00,Wunderground v.1.15,2013-07-06 10:37:00,
2013-07-06 06:43:00,69.6,68.4,30.16,SSE,159,3.0,5.0,96,0.00,,,0.00,Wunderground v.1.15,2013-07-06 10:43:00,
2013-07-06 06:49:00,69.8,68.6,30.16,SSW,192,3.0,6.0,96,0.00,,,0.00,Wunderground v.1.15,2013-07-06 10:49:00,
2013-07-06 06:55:00,70.2,69.0,30.16,SSE,166,4.0,6.0,96,0.00,,,0.00,Wunderground v.1.15,2013-07-06 10:55:00,
2013-07-06 07:00:00,70.5,69.3,30.16,SSW,194,4.0,6.0,96,0.00,,,0.00,Wunderground v.1.15,2013-07-06 11:00:00,
2013-07-06 07:05:00,70.8,69.6,30.16,SSE,168,4.0,7.0,96,0.00,,,0.00,Wunderground v.1.15,2013-07-06 11:05:00,
2013-07-06 07:11:00,71.1,69.9,30.16,SW,219,4.0,4.0,96,0.00,,,0.00,Wunderground v.1.15,2013-07-06 11:11:00,
2013-07-06 07:17:00,71.4,70.2,30.16,SSW,195,4.0,7.0,96,0.00,,,0.00,Wunderground v.1.15,2013-07-06 11:17:00,
2013-07-06 07:23:00,71.6,70.4,30.17,SSW,192,6.0,8.0,96,0.00,,,0.00,Wunderground v.1.15,2013-07-06 11:23:00,
2013-07-06 07:30:00,72.1,70.9,30.16,South,183,6.0,6.0,96,0.00,,,0.00,Wunderground v.1.15,2013-07-06 11:30:00,
2013-07-06 07:36:00,72.6,71.4,30.16,SSW,198,6.0,7.0,96,0.00,,,0.00,Wunderground v.1.15,2013-07-06 11:36:00,
2013-07-06 07:42:00,73.1,71.9,30.17,SSW,207,4.0,6.0,96,0.00,,,0.00,Wunderground v.1.15,2013-07-06 11:42:00,
2013-07-06 07:48:00,73.1,71.9,30.17,SSE,166,4.0,6.0,96,0.00,,,0.00,Wunderground v.1.15,2013-07-06 11:48:00,
2013-07-06 07:54:00,73.0,71.8,30.16,SSW,201,3.0,4.0,96,0.00,,,0.00,Wunderground v.1.15,2013-07-06 11:54:00,
2013-07-06 08:00:00,73.1,71.9,30.16,SSW,201,3.0,7.0,96,0.00,,,0.00,Wunderground v.1.15,2013-07-06 12:00:00,
2013-07-06 08:07:00,73.4,71.9,30.16,South,181,4.0,7.0,95,0.00,,,0.00,Wunderground v.1.15,2013-07-06 12:07:00,
2013-07-06 08:13:00,73.7,72.2,30.16,SSW,202,4.0,8.0,95,0.00,,,0.00,Wunderground v.1.15,2013-07-06 12:13:00,
2013-07-06 08:18:00,74.2,72.7,30.16,SSW,198,5.0,8.0,95,0.00,,,0.00,Wunderground v.1.15,2013-07-06 12:18:00,
2013-07-06 08:24:00,74.7,72.9,30.16,SSW,199,5.0,6.0,94,0.00,,,0.00,Wunderground v.1.15,2013-07-06 12:24:00,
2013-07-06 08:30:00,75.2,73.4,30.16,South,170,5.0,5.0,94,0.00,,,0.00,Wunderground v.1.15,2013-07-06 12:30:00,
2013-07-06 08:37:00,76.1,73.9,30.16,SSE,151,5.0,7.0,93,0.00,,,0.00,Wunderground v.1.15,2013-07-06 12:37:00,
2013-07-06 08:43:00,76.9,74.4,30.16,South,183,4.0,5.0,92,0.00,,,0.00,Wunderground v.1.15,2013-07-06 12:43:00,
2013-07-06 08:48:00,77.6,74.4,30.16,SSW,209,4.0,6.0,90,0.00,,,0.00,Wunderground v.1.15,2013-07-06 12:48:00,
2013-07-06 08:54:00,78.5,75.0,30.16,SSE,167,4.0,5.0,89,0.00,,,0.00,Wunderground v.1.15,2013-07-06 12:54:00,
2013-07-06 08:59:00,79.3,74.7,30.16,South,173,4.0,5.0,86,0.00,,,0.00,Wunderground v.1.15,2013-07-06 12:59:00,
2013-07-06 09:05:00,79.7,73.7,30.16,SSE,167,4.0,6.0,82,0.00,,,0.00,Wunderground v.1.15,2013-07-06 13:05:00,
2013-07-06 09:10:00,80.2,73.8,30.16,SSW,204,4.0,5.0,81,0.00,,,0.00,Wunderground v.1.15,2013-07-06 13:10:00,
2013-07-06 09:16:00,80.9,74.5,30.16,South,188,3.0,6.0,81,0.00,,,0.00,Wunderground v.1.15,2013-07-06 13:16:00,
2013-07-06 09:22:00,81.8,74.6,30.16,SSE,153,3.0,4.0,79,0.00,,,0.00,Wunderground v.1.15,2013-07-06 13:22:00,
2013-07-06 09:27:00,82.3,74.7,30.16,South,174,3.0,6.0,78,0.00,,,0.00,Wunderground v.1.15,2013-07-06 13:27:00,
2013-07-06 09:33:00,82.6,74.7,30.16,South,182,4.0,4.0,77,0.00,,,0.00,Wunderground v.1.15,2013-07-06 13:33:00,
2013-07-06 09:39:00,82.9,74.6,30.16,South,182,4.0,5.0,76,0.00,,,0.00,Wunderground v.1.15,2013-07-06 13:39:00,
2013-07-06 09:44:00,83.3,74.5,30.16,SSE,157,4.0,5.0,75,0.00,,,0.00,Wunderground v.1.15,2013-07-06 13:44:00,
2013-07-06 09:50:00,83.6,74.8,30.15,South,169,4.0,7.0,75,0.00,,,0.00,Wunderground v.1.15,2013-07-06 13:50:00,
2013-07-06 09:56:00,83.6,75.2,30.16,South,184,4.0,8.0,76,0.00,,,0.00,Wunderground v.1.15,2013-07-06 13:56:00,
2013-07-06 10:01:00,83.6,74.4,30.15,SW,214,5.0,6.0,74,0.00,,,0.00,Wunderground v.1.15,2013-07-06 14:01:00,
2013-07-06 10:07:00,83.5,74.7,30.15,SSW,197,5.0,6.0,75,0.00,,,0.00,Wunderground v.1.15,2013-07-06 14:07:00,
2013-07-06 10:13:00,83.5,74.7,30.15,SSW,198,5.0,6.0,75,0.00,,,0.00,Wunderground v.1.15,2013-07-06 14:13:00,
2013-07-06 10:19:00,83.8,75.4,30.15,South,178,5.0,6.0,76,0.00,,,0.00,Wunderground v.1.15,2013-07-06 14:19:00,
2013-07-06 10:25:00,84.4,75.2,30.15,SSE,167,5.0,6.0,74,0.00,,,0.00,Wunderground v.1.15,2013-07-06 14:25:00,
2013-07-06 10:31:00,84.7,74.3,30.15,South,180,4.0,4.0,71,0.00,,,0.00,Wunderground v.1.15,2013-07-06 14:31:00,
2013-07-06 10:37:00,85.0,75.0,30.15,SSE,153,3.0,5.0,72,0.00,,,0.00,Wunderground v.1.15,2013-07-06 14:37:00,
2013-07-06 10:43:00,85.2,74.3,30.15,South,179,3.0,5.0,70,0.00,,,0.00,Wunderground v.1.15,2013-07-06 14:43:00,
2013-07-06 10:49:00,85.4,74.5,30.14,South,182,4.0,7.0,70,0.00,,,0.00,Wunderground v.1.15,2013-07-06 14:49:00,
2013-07-06 10:54:00,85.6,75.1,30.14,SSE,166,4.0,6.0,71,0.00,,,0.00,Wunderground v.1.15,2013-07-06 14:54:00,
2013-07-06 11:00:00,85.6,75.1,30.14,SSE,161,5.0,5.0,71,0.00,,,0.00,Wunderground v.1.15,2013-07-06 15:00:00,
2013-07-06 11:06:00,85.7,74.8,30.14,South,178,5.0,7.0,70,0.00,,,0.00,Wunderground v.1.15,2013-07-06 15:06:00,
2013-07-06 11:12:00,85.6,74.3,30.14,South,173,5.0,6.0,69,0.00,,,0.00,Wunderground v.1.15,2013-07-06 15:12:00,
2013-07-06 11:18:00,85.3,74.0,30.14,South,169,5.0,7.0,69,0.00,,,0.00,Wunderground v.1.15,2013-07-06 15:18:00,
2013-07-06 11:23:00,85.4,74.1,30.14,South,176,5.0,7.0,69,0.00,,,0.00,Wunderground v.1.15,2013-07-06 15:23:00,
2013-07-06 11:29:00,85.4,74.1,30.14,SSE,162,5.0,7.0,69,0.00,,,0.00,Wunderground v.1.15,2013-07-06 15:29:00,
2013-07-06 11:34:00,85.2,73.9,30.14,SSW,196,5.0,5.0,69,0.00,,,0.00,Wunderground v.1.15,2013-07-06 15:34:00,
2013-07-06 11:39:00,85.3,74.0,30.14,SSE,166,5.0,8.0,69,0.00,,,0.00,Wunderground v.1.15,2013-07-06 15:39:00,
2013-07-06 11:45:00,85.4,74.1,30.14,SSE,167,5.0,8.0,69,0.00,,,0.00,Wunderground v.1.15,2013-07-06 15:45:00,
2013-07-06 11:51:00,85.4,74.9,30.14,SSW,197,5.0,5.0,71,0.00,,,0.00,Wunderground v.1.15,2013-07-06 15:51:00,
2013-07-06 11:57:00,86.0,75.1,30.13,South,175,5.0,8.0,70,0.00,,,0.00,Wunderground v.1.15,2013-07-06 15:57:00,
2013-07-06 12:03:00,86.6,76.1,30.13,SSE,167,4.0,9.0,71,0.00,,,0.00,Wunderground v.1.15,2013-07-06 16:03:00,
2013-07-06 12:09:00,86.8,75.0,30.13,SSW,192,5.0,9.0,68,0.00,,,0.00,Wunderground v.1.15,2013-07-06 16:09:00,
2013-07-06 12:14:00,87.1,75.3,30.13,SSW,200,5.0,10.0,68,0.00,,,0.00,Wunderground v.1.15,2013-07-06 16:14:00,
2013-07-06 12:19:00,87.2,74.9,30.13,SSE,153,5.0,10.0,67,0.00,,,0.00,Wunderground v.1.15,2013-07-06 16:19:00,
2013-07-06 12:25:00,86.6,74.3,30.13,SSE,161,6.0,8.0,67,0.00,,,0.00,Wunderground v.1.15,2013-07-06 16:25:00,
2013-07-06 12:30:00,86.3,74.5,30.13,SSW,201,7.0,7.0,68,0.00,,,0.00,Wunderground v.1.15,2013-07-06 16:30:00,
2013-07-06 12:36:00,86.4,74.6,30.13,South,184,6.0,12.0,68,0.00,,,0.00,Wunderground v.1.15,2013-07-06 16:36:00,
2013-07-06 12:43:00,86.5,74.2,30.12,SSW,192,6.0,8.0,67,0.00,,,0.00,Wunderground v.1.15,2013-07-06 16:43:00,
2013-07-06 12:49:00,85.9,74.1,30.12,South,190,7.0,11.0,68,0.00,,,0.00,Wunderground v.1.15,2013-07-06 16:49:00,
2013-07-06 12:55:00,85.5,74.2,30.12,South,174,8.0,10.0,69,0.00,,,0.00,Wunderground v.1.15,2013-07-06 16:55:00,
2013-07-06 13:00:00,85.2,74.3,30.12,SSE,168,8.0,8.0,70,0.00,,,0.00,Wunderground v.1.15,2013-07-06 17:00:00,
2013-07-06 13:06:00,85.3,74.4,30.12,SSW,209,8.0,9.0,70,0.00,,,0.00,Wunderground v.1.15,2013-07-06 17:06:00,
2013-07-06 13:12:00,85.6,74.7,30.12,SSW,211,8.0,8.0,70,0.00,,,0.00,Wunderground v.1.15,2013-07-06 17:12:00,
2013-07-06 13:18:00,86.4,74.6,30.12,SSE,166,7.0,8.0,68,0.00,,,0.00,Wunderground v.1.15,2013-07-06 17:18:00,
2013-07-06 13:24:00,86.9,74.6,30.11,South,180,7.0,11.0,67,0.00,,,0.00,Wunderground v.1.15,2013-07-06 17:24:00,
2013-07-06 13:29:00,86.8,74.1,30.11,South,180,7.0,11.0,66,0.00,,,0.00,Wunderground v.1.15,2013-07-06 17:29:00,
2013-07-06 13:35:00,86.4,74.6,30.11,SSE,163,8.0,10.0,68,0.00,,,0.00,Wunderground v.1.15,2013-07-06 17:35:00,
2013-07-06 13:41:00,85.8,74.0,30.11,SSE,163,8.0,10.0,68,0.00,,,0.00,Wunderground v.1.15,2013-07-06 17:41:00,
2013-07-06 13:46:00,85.4,74.5,30.11,SSE,162,8.0,13.0,70,0.00,,,0.00,Wunderground v.1.15,2013-07-06 17:46:00,
2013-07-06 13:52:00,85.2,74.7,30.11,SSW,198,8.0,12.0,71,0.00,,,0.00,Wunderground v.1.15,2013-07-06 17:52:00,
2013-07-06 13:58:00,84.8,74.8,30.11,SSW,192,9.0,12.0,72,0.00,,,0.00,Wunderground v.1.15,2013-07-06 17:58:00,
2013-07-06 14:03:00,84.3,73.9,30.11,South,176,9.0,10.0,71,0.00,,,0.00,Wunderground v.1.15,2013-07-06 18:03:00,
2013-07-06 14:09:00,83.9,74.3,30.11,South,187,9.0,14.0,73,0.00,,,0.00,Wunderground v.1.15,2013-07-06 18:09:00,
2013-07-06 14:14:00,83.7,74.1,30.11,South,175,9.0,13.0,73,0.00,,,0.00,Wunderground v.1.15,2013-07-06 18:14:00,
2013-07-06 14:20:00,83.7,74.5,30.11,South,188,8.0,12.0,74,0.00,,,0.00,Wunderground v.1.15,2013-07-06 18:20:00,
2013-07-06 14:27:00,83.0,73.4,30.10,South,169,9.0,12.0,73,0.00,,,0.00,Wunderground v.1.15,2013-07-06 18:27:00,
2013-07-06 14:33:00,82.5,73.4,30.11,South,170,9.0,9.0,74,0.00,,,0.00,Wunderground v.1.15,2013-07-06 18:33:00,
2013-07-06 14:40:00,82.3,74.0,30.10,SSW,197,8.0,9.0,76,0.00,,,0.00,Wunderground v.1.15,2013-07-06 18:40:00,
2013-07-06 14:46:00,83.0,74.3,30.10,South,174,8.0,11.0,75,0.00,,,0.00,Wunderground v.1.15,2013-07-06 18:46:00,
2013-07-06 14:51:00,83.2,74.4,30.10,SSW,192,8.0,13.0,75,0.00,,,0.00,Wunderground v.1.15,2013-07-06 18:51:00,
2013-07-06 14:58:00,83.1,73.9,30.10,SE,146,10.0,15.0,74,0.00,,,0.00,Wunderground v.1.15,2013-07-06 18:58:00,
2013-07-06 15:03:00,83.1,73.9,30.10,SSW,194,10.0,15.0,74,0.00,,,0.00,Wunderground v.1.15,2013-07-06 19:03:00,
2013-07-06 15:08:00,83.2,74.0,30.10,SSE,157,9.0,15.0,74,0.00,,,0.00,Wunderground v.1.15,2013-07-06 19:08:00,
2013-07-06 15:13:00,83.3,74.1,30.10,South,190,9.0,12.0,74,0.00,,,0.00,Wunderground v.1.15,2013-07-06 19:13:00,
2013-07-06 15:19:00,83.1,73.9,30.10,South,186,9.0,14.0,74,0.00,,,0.00,Wunderground v.1.15,2013-07-06 19:19:00,
2013-07-06 15:25:00,83.1,74.4,30.10,South,176,10.0,12.0,75,0.00,,,0.00,Wunderground v.1.15,2013-07-06 19:25:00,
2013-07-06 15:32:00,83.0,73.9,30.10,SSW,200,9.0,12.0,74,0.00,,,0.00,Wunderground v.1.15,2013-07-06 19:32:00,
2013-07-06 15:39:00,82.9,74.2,30.09,South,169,9.0,12.0,75,0.00,,,0.00,Wunderground v.1.15,2013-07-06 19:39:00,
2013-07-06 15:44:00,82.8,74.1,30.09,South,179,9.0,11.0,75,0.00,,,0.00,Wunderground v.1.15,2013-07-06 19:44:00,
2013-07-06 15:51:00,83.0,73.9,30.09,South,175,9.0,9.0,74,0.00,,,0.00,Wunderground v.1.15,2013-07-06 19:51:00,
2013-07-06 15:57:00,82.7,73.6,30.09,South,190,9.0,12.0,74,0.00,,,0.00,Wunderground v.1.15,2013-07-06 19:57:00,
2013-07-06 16:03:00,82.7,73.6,30.09,SSW,207,9.0,12.0,74,0.00,,,0.00,Wunderground v.1.15,2013-07-06 20:03:00,
2013-07-06 16:08:00,82.7,73.6,30.09,South,184,8.0,12.0,74,0.00,,,0.00,Wunderground v.1.15,2013-07-06 20:08:00,
2013-07-06 16:14:00,82.5,73.4,30.09,SSE,166,8.0,10.0,74,0.00,,,0.00,Wunderground v.1.15,2013-07-06 20:14:00,
2013-07-06 16:19:00,81.8,72.7,30.09,South,172,9.0,12.0,74,0.00,,,0.00,Wunderground v.1.15,2013-07-06 20:19:00,
2013-07-06 16:25:00,81.2,72.1,30.09,South,186,9.0,11.0,74,0.00,,,0.00,Wunderground v.1.15,2013-07-06 20:25:00,
2013-07-06 16:31:00,80.7,72.4,30.09,SSW,192,9.0,9.0,76,0.00,,,0.00,Wunderground v.1.15,2013-07-06 20:31:00,
2013-07-06 16:37:00,80.5,72.2,30.08,South,171,9.0,13.0,76,0.00,,,0.00,Wunderground v.1.15,2013-07-06 20:37:00,
2013-07-06 16:42:00,80.2,72.3,30.08,SSE,162,9.0,12.0,77,0.00,,,0.00,Wunderground v.1.15,2013-07-06 20:42:00,
2013-07-06 16:47:00,79.9,72.0,30.08,South,173,9.0,15.0,77,0.00,,,0.00,Wunderground v.1.15,2013-07-06 20:47:00,
2013-07-06 16:54:00,80.2,72.7,30.08,South,181,9.0,11.0,78,0.00,,,0.00,Wunderground v.1.15,2013-07-06 20:54:00,
2013-07-06 17:00:00,80.3,72.4,30.08,South,175,8.0,9.0,77,0.00,,,0.00,Wunderground v.1.15,2013-07-06 21:00:00,
2013-07-06 17:05:00,80.1,72.2,30.08,SSW,193,9.0,13.0,77,0.00,,,0.00,Wunderground v.1.15,2013-07-06 21:05:00,
2013-07-06 17:11:00,80.2,72.3,30.07,SSE,150,9.0,12.0,77,0.00,,,0.00,Wunderground v.1.15,2013-07-06 21:11:00,
2013-07-06 17:17:00,80.3,72.4,30.07,SSW,204,9.0,17.0,77,0.00,,,0.00,Wunderground v.1.15,2013-07-06 21:17:00,
2013-07-06 17:22:00,79.9,71.7,30.07,SSW,198,10.0,13.0,76,0.00,,,0.00,Wunderground v.1.15,2013-07-06 21:22:00,
2013-07-06 17:29:00,79.7,71.8,30.07,SSW,193,9.0,14.0,77,0.00,,,0.00,Wunderground v.1.15,2013-07-06 21:29:00,
2013-07-06 17:34:00,79.8,71.9,30.07,SSE,159,8.0,13.0,77,0.00,,,0.00,Wunderground v.1.15,2013-07-06 21:34:00,
2013-07-06 17:39:00,79.6,71.8,30.07,SSE,164,8.0,13.0,77,0.00,,,0.00,Wunderground v.1.15,2013-07-06 21:39:00,
2013-07-06 17:45:00,79.5,71.7,30.07,SSW,208,8.0,9.0,77,0.00,,,0.00,Wunderground v.1.15,2013-07-06 21:45:00,
2013-07-06 17:54:00,78.9,71.5,30.07,SSW,202,8.0,10.0,78,0.00,,,0.00,Wunderground v.1.15,2013-07-06 21:54:00,
2013-07-06 17:59:00,78.6,71.2,30.06,SSW,192,9.0,10.0,78,0.00,,,0.00,Wunderground v.1.15,2013-07-06 21:59:00,
2013-07-06 18:05:00,78.0,71.0,30.06,SSE,150,9.0,11.0,79,0.00,,,0.00,Wunderground v.1.15,2013-07-06 22:05:00,
2013-07-06 18:11:00,77.8,71.1,30.06,SSW,201,9.0,14.0,80,0.00,,,0.00,Wunderground v.1.15,2013-07-06 22:11:00,
2013-07-06 18:17:00,77.8,71.1,30.06,South,191,8.0,14.0,80,0.00,,,0.00,Wunderground v.1.15,2013-07-06 22:17:00,
2013-07-06 18:22:00,77.6,70.9,30.06,South,169,8.0,8.0,80,0.00,,,0.00,Wunderground v.1.15,2013-07-06 22:22:00,
2013-07-06 18:29:00,77.5,70.8,30.06,SSW,207,8.0,11.0,80,0.00,,,0.00,Wunderground v.1.15,2013-07-06 22:29:00,
2013-07-06 18:34:00,77.5,70.8,30.06,South,186,8.0,8.0,80,0.00,,,0.00,Wunderground v.1.15,2013-07-06 22:34:00,
2013-07-06 18:40:00,77.3,70.6,30.06,South,180,9.0,9.0,80,0.00,,,0.00,Wunderground v.1.15,2013-07-06 22:40:00,
2013-07-06 18:46:00,77.1,70.8,30.06,SSE,153,8.0,9.0,81,0.00,,,0.00,Wunderground v.1.15,2013-07-06 22:46:00,
2013-07-06 18:51:00,76.9,70.6,30.06,South,178,8.0,12.0,81,0.00,,,0.00,Wunderground v.1.15,2013-07-06 22:51:00,
2013-07-06 18:56:00,76.6,70.3,30.06,SSE,155,8.0,12.0,81,0.00,,,0.00,Wunderground v.1.15,2013-07-06 22:56:00,
2013-07-06 19:02:00,76.4,70.5,30.06,South,171,8.0,8.0,82,0.00,,,0.00,Wunderground v.1.15,2013-07-06 23:02:00,
2013-07-06 19:08:00,76.4,70.5,30.06,SSE,166,7.0,8.0,82,0.00,,,0.00,Wunderground v.1.15,2013-07-06 23:08:00,
2013-07-06 19:15:00,76.3,70.4,30.06,South,169,7.0,9.0,82,0.00,,,0.00,Wunderground v.1.15,2013-07-06 23:15:00,
2013-07-06 19:20:00,76.2,70.3,30.06,South,173,7.0,10.0,82,0.00,,,0.00,Wunderground v.1.15,2013-07-06 23:20:00,
2013-07-06 19:26:00,76.1,70.2,30.06,South,176,7.0,10.0,82,0.00,,,0.00,Wunderground v.1.15,2013-07-06 23:26:00,
2013-07-06 19:32:00,75.8,69.9,30.06,SSE,165,7.0,8.0,82,0.00,,,0.00,Wunderground v.1.15,2013-07-06 23:32:00,
2013-07-06 19:38:00,75.7,70.2,30.06,SSW,195,6.0,8.0,83,0.00,,,0.00,Wunderground v.1.15,2013-07-06 23:38:00,
2013-07-06 19:43:00,75.9,70.4,30.06,South,189,5.0,5.0,83,0.00,,,0.00,Wunderground v.1.15,2013-07-06 23:43:00,
2013-07-06 19:48:00,75.9,70.0,30.06,South,186,5.0,7.0,82,0.00,,,0.00,Wunderground v.1.15,2013-07-06 23:48:00,
2013-07-06 19:56:00,75.5,70.0,30.05,SSE,160,6.0,7.0,83,0.00,,,0.00,Wunderground v.1.15,2013-07-06 23:56:00,
2013-07-06 20:03:00,75.2,69.7,30.06,SSW,193,6.0,8.0,83,0.00,,,0.00,Wunderground v.1.15,2013-07-07 00:03:00,
2013-07-06 20:08:00,75.1,69.9,30.06,SSE,167,6.0,8.0,84,0.00,,,0.00,Wunderground v.1.15,2013-07-07 00:08:00,
2013-07-06 20:15:00,74.7,69.5,30.05,South,189,6.0,7.0,84,0.00,,,0.00,Wunderground v.1.15,2013-07-07 00:15:00,
2013-07-06 20:22:00,74.6,69.8,30.06,SSE,162,5.0,6.0,85,0.00,,,0.00,Wunderground v.1.15,2013-07-07 00:22:00,
2013-07-06 20:30:00,74.6,69.8,30.06,SSE,157,5.0,5.0,85,0.00,,,0.00,Wunderground v.1.15,2013-07-07 00:30:00,
2013-07-06 20:36:00,74.6,69.8,30.06,SSE,167,5.0,7.0,85,0.00,,,0.00,Wunderground v.1.15,2013-07-07 00:36:00,
2013-07-06 20:42:00,74.4,69.6,30.06,South,183,5.0,5.0,85,0.00,,,0.00,Wunderground v.1.15,2013-07-07 00:42:00,
2013-07-06 20:47:00,74.3,69.5,30.06,South,182,4.0,5.0,85,0.00,,,0.00,Wunderground v.1.15,2013-07-07 00:47:00,
2013-07-06 20:53:00,74.3,69.5,30.06,South,184,4.0,8.0,85,0.00,,,0.00,Wunderground v.1.15,2013-07-07 00:53:00,
2013-07-06 20:59:00,74.1,69.3,30.06,SSW,192,5.0,8.0,85,0.00,,,0.00,Wunderground v.1.15,2013-07-07 00:59:00,
2013-07-06 21:04:00,74.1,69.6,30.06,SSE,159,5.0,8.0,86,0.00,,,0.00,Wunderground v.1.15,2013-07-07 01:04:00,
2013-07-06 21:10:00,74.1,69.6,30.07,South,186,5.0,5.0,86,0.00,,,0.00,Wunderground v.1.15,2013-07-07 01:10:00,
2013-07-06 21:15:00,74.0,69.5,30.07,SW,215,6.0,7.0,86,0.00,,,0.00,Wunderground v.1.15,2013-07-07 01:15:00,
2013-07-06 21:20:00,73.9,69.4,30.07,SSW,194,6.0,6.0,86,0.00,,,0.00,Wunderground v.1.15,2013-07-07 01:20:00,
2013-07-06 21:26:00,73.8,69.3,30.07,South,178,5.0,8.0,86,0.00,,,0.00,Wunderground v.1.15,2013-07-07 01:26:00,
2013-07-06 21:32:00,73.8,69.3,30.07,SSW,198,5.0,6.0,86,0.00,,,0.00,Wunderground v.1.15,2013-07-07 01:32:00,
2013-07-06 21:37:00,73.8,69.3,30.08,SSW,198,5.0,6.0,86,0.00,,,0.00,Wunderground v.1.15,2013-07-07 01:37:00,
2013-07-06 21:44:00,73.7,69.2,30.08,SSW,205,5.0,7.0,86,0.00,,,0.00,Wunderground v.1.15,2013-07-07 01:44:00,
2013-07-06 21:50:00,73.7,69.2,30.08,SSW,197,5.0,5.0,86,0.00,,,0.00,Wunderground v.1.15,2013-07-07 01:50:00,
2013-07-06 21:58:00,73.8,69.3,30.08,South,190,5.0,6.0,86,0.00,,,0.00,Wunderground v.1.15,2013-07-07 01:58:00,
2013-07-06 22:03:00,74.0,69.9,30.08,SSW,207,5.0,7.0,87,0.00,,,0.00,Wunderground v.1.15,2013-07-07 02:03:00,
2013-07-06 22:09:00,74.1,70.0,30.09,South,188,5.0,7.0,87,0.00,,,0.00,Wunderground v.1.15,2013-07-07 02:09:00,
2013-07-06 22:16:00,74.4,70.3,30.09,SSE,167,4.0,9.0,87,0.00,,,0.00,Wunderground v.1.15,2013-07-07 02:16:00,
2013-07-06 22:24:00,74.7,70.6,30.09,South,174,4.0,6.0,87,0.00,,,0.00,Wunderground v.1.15,2013-07-07 02:24:00,
2013-07-06 22:29:00,74.8,70.7,30.09,SW,219,4.0,6.0,87,0.00,,,0.00,Wunderground v.1.15,2013-07-07 02:29:00,
2013-07-06 22:34:00,74.7,70.6,30.09,SSE,149,4.0,5.0,87,0.00,,,0.00,Wunderground v.1.15,2013-07-07 02:34:00,
2013-07-06 22:41:00,74.7,70.6,30.09,SSW,195,4.0,4.0,87,0.00,,,0.00,Wunderground v.1.15,2013-07-07 02:41:00,
2013-07-06 22:47:00,74.7,70.6,30.09,SSW,197,4.0,5.0,87,0.00,,,0.00,Wunderground v.1.15,2013-07-07 02:47:00,
2013-07-06 22:53:00,74.7,70.6,30.09,SSW,209,5.0,10.0,87,0.00,,,0.00,Wunderground v.1.15,2013-07-07 02:53:00,
2013-07-06 22:59:00,74.8,71.0,30.09,SSW,198,5.0,10.0,88,0.00,,,0.00,Wunderground v.1.15,2013-07-07 02:59:00,
2013-07-06 23:06:00,74.7,70.6,30.09,SSW,194,4.0,8.0,87,0.00,,,0.00,Wunderground v.1.15,2013-07-07 03:06:00,
2013-07-06 23:11:00,74.5,70.4,30.09,SSW,201,5.0,8.0,87,0.00,,,0.00,Wunderground v.1.15,2013-07-07 03:11:00,
2013-07-06 23:17:00,74.2,70.1,30.09,South,169,6.0,8.0,87,0.00,,,0.00,Wunderground v.1.15,2013-07-07 03:17:00,
2013-07-06 23:23:00,74.1,70.0,30.09,SSW,199,5.0,6.0,87,0.00,,,0.00,Wunderground v.1.15,2013-07-07 03:23:00,
2013-07-06 23:28:00,74.0,69.9,30.09,SSW,203,5.0,7.0,87,0.00,,,0.00,Wunderground v.1.15,2013-07-07 03:28:00,
2013-07-06 23:33:00,74.0,70.2,30.09,South,172,5.0,7.0,88,0.00,,,0.00,Wunderground v.1.15,2013-07-07 03:33:00,
2013-07-06 23:39:00,74.1,70.3,30.09,South,170,4.0,7.0,88,0.00,,,0.00,Wunderground v.1.15,2013-07-07 03:39:00,
2013-07-06 23:47:00,74.3,70.5,30.10,SSW,204,4.0,6.0,88,0.00,,,0.00,Wunderground v.1.15,2013-07-07 03:47:00,
2013-07-06 23:52:00,74.4,70.6,30.10,SSW,202,5.0,7.0,88,0.00,,,0.00,Wunderground v.1.15,2013-07-07 03:52:00,
2013-07-06 23:58:00,74.3,70.2,30.10,South,188,6.0,7.0,87,0.00,,,0.00,Wunderground v.1.15,2013-07-07 03:58:00,